Home > Products > Valid Products > TAF

000
FTPA31 PHFO 262300
TAFHNL
TAF
PHNL 262328Z 2700/2806 20008KT P6SM VCSH SCT025 SCT050 BKN100
     FM270500 33005KT P6SM VCSH SCT025 BKN040 BKN100
     FM272000 22008KT P6SM VCSH SCT025 BKN040 BKN100
     FM280500 31006KT P6SM VCSH SCT025 BKN035 BKN100=



000
FTPA31 PHFO 262300
TAFHNL
TAF
PHNL 262328Z 2700/2806 20008KT P6SM VCSH SCT025 SCT050 BKN100
     FM270500 33005KT P6SM VCSH SCT025 BKN040 BKN100
     FM272000 22008KT P6SM VCSH SCT025 BKN040 BKN100
     FM280500 31006KT P6SM VCSH SCT025 BKN035 BKN100=



000
FTPA31 PHFO 262000 AAA
TAFHNL
TAF AMD
PHNL 262053Z 2621/2724 18008KT P6SM VCSH SCT025 SCT050 BKN250
     FM270500 33005KT P6SM VCSH SCT025 BKN040 BKN250
     FM272000 24008KT P6SM VCSH SCT025 SCT040=



000
FTPA31 PHFO 262000 AAA
TAFHNL
TAF AMD
PHNL 262053Z 2621/2724 18008KT P6SM VCSH SCT025 SCT050 BKN250
     FM270500 33005KT P6SM VCSH SCT025 BKN040 BKN250
     FM272000 24008KT P6SM VCSH SCT025 SCT040=



000
FTPA31 PHFO 261700
TAFHNL
TAF
PHNL 261723Z 2618/2724 34005KT P6SM VCSH FEW025 SCT035 BKN060
     FM262100 18008KT P6SM VCSH SCT025 BKN040
     FM270500 33005KT P6SM VCSH SCT025 BKN040
     FM272000 24008KT P6SM SCT025 SCT040=



000
FTPA31 PHFO 261500 AAA
TAFHNL
TAF AMD
PHNL 261505Z 2615/2718 34005KT P6SM VCSH FEW025 SCT035 BKN050
     FM262100 18008KT P6SM VCSH SCT025 BKN040
     FM270500 VRB04KT P6SM SCT025 BKN040=



000
FTPA31 PHFO 261500 AAA
TAFHNL
TAF AMD
PHNL 261505Z 2615/2718 34005KT P6SM VCSH FEW025 SCT035 BKN050
     FM262100 18008KT P6SM VCSH SCT025 BKN040
     FM270500 VRB04KT P6SM SCT025 BKN040=



000
FTPA31 PHFO 261500 AAA
TAFHNL
TAF AMD
PHNL 261505Z 2615/2718 34005KT P6SM VCSH FEW025 SCT035 BKN050
     FM262100 18008KT P6SM VCSH SCT025 BKN040
     FM270500 VRB04KT P6SM SCT025 BKN040=



000
FTPA31 PHFO 261500 AAA
TAFHNL
TAF AMD
PHNL 261505Z 2615/2718 34005KT P6SM VCSH FEW025 SCT035 BKN050
     FM262100 18008KT P6SM VCSH SCT025 BKN040
     FM270500 VRB04KT P6SM SCT025 BKN040=



000
FTPA31 PHFO 261100
TAFHNL
TAF
PHNL 261121Z 2612/2718 05005KT P6SM VCSH FEW025 SCT035 BKN050
     FM262100 18008KT P6SM VCSH SCT025 BKN040
     FM270500 VRB04KT P6SM SCT025 BKN040=



000
FTPA31 PHFO 261100
TAFHNL
TAF
PHNL 261121Z 2612/2718 05005KT P6SM VCSH FEW025 SCT035 BKN050
     FM262100 18008KT P6SM VCSH SCT025 BKN040
     FM270500 VRB04KT P6SM SCT025 BKN040=



000
FTPA31 PHFO 261100
TAFHNL
TAF
PHNL 261121Z 2612/2718 05005KT P6SM VCSH FEW025 SCT035 BKN050
     FM262100 18008KT P6SM VCSH SCT025 BKN040
     FM270500 VRB04KT P6SM SCT025 BKN040=



000
FTPA31 PHFO 260900 AAA
TAFHNL
TAF AMD
PHNL 260906Z 2609/2712 06009KT P6SM FEW025 SCT035 BKN050
     FM261200 03005KT P6SM FEW025 SCT035 BKN050
     FM262100 18008KT P6SM VCSH SCT025 BKN040
     FM270500 VRB04KT P6SM VCSH SCT025 BKN040=



000
FTPA31 PHFO 260900 AAA
TAFHNL
TAF AMD
PHNL 260906Z 2609/2712 06009KT P6SM FEW025 SCT035 BKN050
     FM261200 03005KT P6SM FEW025 SCT035 BKN050
     FM262100 18008KT P6SM VCSH SCT025 BKN040
     FM270500 VRB04KT P6SM VCSH SCT025 BKN040=



000
FTPA31 PHFO 260900 AAA
TAFHNL
TAF AMD
PHNL 260906Z 2609/2712 06009KT P6SM FEW025 SCT035 BKN050
     FM261200 03005KT P6SM FEW025 SCT035 BKN050
     FM262100 18008KT P6SM VCSH SCT025 BKN040
     FM270500 VRB04KT P6SM VCSH SCT025 BKN040=



000
FTPA31 PHFO 260500
TAFHNL
TAF
PHNL 260521Z 2606/2712 06009KT P6SM FEW025 SCT035 BKN250
     FM261200 03005KT P6SM FEW025 SCT035 BKN250
     FM262100 18008KT P6SM VCSH SCT025 BKN040
     FM270500 VRB04KT P6SM VCSH SCT025 BKN040=



000
FTPA31 PHFO 260500
TAFHNL
TAF
PHNL 260521Z 2606/2712 06009KT P6SM FEW025 SCT035 BKN250
     FM261200 03005KT P6SM FEW025 SCT035 BKN250
     FM262100 18008KT P6SM VCSH SCT025 BKN040
     FM270500 VRB04KT P6SM VCSH SCT025 BKN040=



000
FTPA31 PHFO 260200 AAA
TAFHNL
TAF AMD
PHNL 260259Z 2603/2706 07014G20KT P6SM FEW030 SCT045 SCT250
     FM260500 06009KT P6SM FEW025 SCT045
     FM262000 17008KT P6SM SCT025 BKN045
     FM270400 VRB04KT P6SM FEW025 BKN045=



000
FTPA31 PHFO 252300
TAFHNL
TAF
PHNL 252328Z 2600/2706 07014G20KT P6SM FEW030 SCT045 SCT250
     FM260500 06009KT P6SM FEW025 SCT045
     FM262000 17008KT P6SM SCT025 BKN045
     FM270400 VRB04KT P6SM FEW025 SCT040=



000
FTPA31 PHFO 252300
TAFHNL
TAF
PHNL 252328Z 2600/2706 07014G20KT P6SM FEW030 SCT045 SCT250
     FM260500 06009KT P6SM FEW025 SCT045
     FM262000 17008KT P6SM SCT025 BKN045
     FM270400 VRB04KT P6SM FEW025 SCT040=



000
FTPA31 PHFO 252300
TAFHNL
TAF
PHNL 252328Z 2600/2706 07014G20KT P6SM FEW030 SCT045 SCT250
     FM260500 06009KT P6SM FEW025 SCT045
     FM262000 17008KT P6SM SCT025 BKN045
     FM270400 VRB04KT P6SM FEW025 SCT040=



000
FTPA31 PHFO 252300
TAFHNL
TAF
PHNL 252328Z 2600/2706 07014G20KT P6SM FEW030 SCT045 SCT250
     FM260500 06009KT P6SM FEW025 SCT045
     FM262000 17008KT P6SM SCT025 BKN045
     FM270400 VRB04KT P6SM FEW025 SCT040=



000
FTPA31 PHFO 252100 AAA
TAFHNL
TAF AMD
PHNL 252105Z 2521/2624 07014G20KT P6SM FEW030 SCT045 SCT250
     FM260500 06009KT P6SM FEW025 SCT045
     FM262000 17008KT P6SM FEW025 BKN045=



000
FTPA31 PHFO 252100 AAA
TAFHNL
TAF AMD
PHNL 252105Z 2521/2624 07014G20KT P6SM FEW030 SCT045 SCT250
     FM260500 06009KT P6SM FEW025 SCT045
     FM262000 17008KT P6SM FEW025 BKN045=



000
FTPA31 PHFO 251700
TAFHNL
TAF
PHNL 251720Z 2518/2624 05007KT P6SM FEW035 SCT250
     FM252000 07014G20KT P6SM FEW030 SCT045
     FM260500 06009KT P6SM FEW025 SCT045
     FM262000 17008KT P6SM FEW025 BKN045=



000
FTPA31 PHFO 251700
TAFHNL
TAF
PHNL 251720Z 2518/2624 05007KT P6SM FEW035 SCT250
     FM252000 07014G20KT P6SM FEW030 SCT045
     FM260500 06009KT P6SM FEW025 SCT045
     FM262000 17008KT P6SM FEW025 BKN045=



000
FTPA31 PHFO 251700
TAFHNL
TAF
PHNL 251720Z 2518/2624 05007KT P6SM FEW035 SCT250
     FM252000 07014G20KT P6SM FEW030 SCT045
     FM260500 06009KT P6SM FEW025 SCT045
     FM262000 17008KT P6SM FEW025 BKN045=



000
FTPA31 PHFO 251700
TAFHNL
TAF
PHNL 251720Z 2518/2624 05007KT P6SM FEW035 SCT250
     FM252000 07014G20KT P6SM FEW030 SCT045
     FM260500 06009KT P6SM FEW025 SCT045
     FM262000 17008KT P6SM FEW025 BKN045=



000
FTPA31 PHFO 251500 AAA
TAFHNL
TAF AMD
PHNL 251505Z 2515/2618 05007KT P6SM FEW035 SCT250
     FM252000 07012G19KT P6SM FEW030 SCT045
     FM260500 06009KT P6SM FEW025 SCT045=



000
FTPA31 PHFO 251500 AAA
TAFHNL
TAF AMD
PHNL 251505Z 2515/2618 05007KT P6SM FEW035 SCT250
     FM252000 07012G19KT P6SM FEW030 SCT045
     FM260500 06009KT P6SM FEW025 SCT045=



000
FTPA31 PHFO 251100
TAFHNL
TAF
PHNL 251125Z 2512/2618 05007KT P6SM FEW035 SCT250
     FM252000 07012G19KT P6SM FEW030 SCT045
     FM260500 06009KT P6SM FEW025 SCT045=



000
FTPA31 PHFO 250900 AAA
TAFHNL
TAF AMD
PHNL 250906Z 2509/2612 05007KT P6SM FEW035 SCT250
     FM252000 07012G19KT P6SM FEW030 SCT045
     FM260500 06009KT P6SM FEW025 SCT045=



000
FTPA31 PHFO 250900 AAA
TAFHNL
TAF AMD
PHNL 250906Z 2509/2612 05007KT P6SM FEW035 SCT250
     FM252000 07012G19KT P6SM FEW030 SCT045
     FM260500 06009KT P6SM FEW025 SCT045=



000
FTPA31 PHFO 250500
TAFHNL
TAF
PHNL 250525Z 2506/2612 06009KT P6SM FEW050
     FM252000 07012G19KT P6SM FEW030 SCT045
     FM260500 06009KT P6SM FEW025 SCT045=



000
FTPA31 PHFO 250200 AAA
TAFHNL
TAF AMD
PHNL 250236Z 2503/2606 06010G16KT P6SM FEW025 BKN050
     FM250600 06009KT P6SM FEW025 SCT045
     FM252000 07012G19KT P6SM FEW030 SCT045
     FM260500 06009KT P6SM FEW025 SCT045=



000
FTPA31 PHFO 250200 AAA
TAFHNL
TAF AMD
PHNL 250236Z 2503/2606 06010G16KT P6SM FEW025 BKN050
     FM250600 06009KT P6SM FEW025 SCT045
     FM252000 07012G19KT P6SM FEW030 SCT045
     FM260500 06009KT P6SM FEW025 SCT045=



000
FTPA31 PHFO 250200 AAA
TAFHNL
TAF AMD
PHNL 250236Z 2503/2606 06010G16KT P6SM FEW025 BKN050
     FM250600 06009KT P6SM FEW025 SCT045
     FM252000 07012G19KT P6SM FEW030 SCT045
     FM260500 06009KT P6SM FEW025 SCT045=



000
FTPA31 PHFO 250200 AAA
TAFHNL
TAF AMD
PHNL 250236Z 2503/2606 06010G16KT P6SM FEW025 BKN050
     FM250600 06009KT P6SM FEW025 SCT045
     FM252000 07012G19KT P6SM FEW030 SCT045
     FM260500 06009KT P6SM FEW025 SCT045=



000
FTPA31 PHFO 242300
TAFHNL
TAF
PHNL 242320Z 2500/2606 06011G18KT P6SM FEW025 SCT040
     FM250500 06009KT P6SM FEW025 SCT040
     FM252000 07012G19KT P6SM FEW030 SCT045
     FM260500 06009KT P6SM FEW025 SCT045=



000
FTPA31 PHFO 242300
TAFHNL
TAF
PHNL 242320Z 2500/2606 06011G18KT P6SM FEW025 SCT040
     FM250500 06009KT P6SM FEW025 SCT040
     FM252000 07012G19KT P6SM FEW030 SCT045
     FM260500 06009KT P6SM FEW025 SCT045=



000
FTPA31 PHFO 242000 AAA
TAFHNL
TAF AMD
PHNL 242036Z 2421/2524 07011G17KT P6SM FEW030 SCT045
     FM250500 05007KT P6SM FEW030
     FM252000 07012G19KT P6SM FEW030 SCT050=



000
FTPA31 PHFO 242000 AAA
TAFHNL
TAF AMD
PHNL 242036Z 2421/2524 07011G17KT P6SM FEW030 SCT045
     FM250500 05007KT P6SM FEW030
     FM252000 07012G19KT P6SM FEW030 SCT050=



000
FTPA31 PHFO 241700
TAFHNL
TAF
PHNL 241726Z 2418/2524 VRB06KT P6SM FEW030 SCT050
     FM242100 07011G17KT P6SM FEW030 SCT050
     FM250500 05007KT P6SM FEW030
     FM252000 07012G19KT P6SM FEW030 SCT050=



000
FTPA31 PHFO 241500 AAA
TAFHNL
TAF AMD
PHNL 241501Z 2415/2518 06010KT P6SM FEW030
     FM242200 07013G19KT P6SM SCT025 SCT050
     FM250500 06008KT P6SM FEW030=



000
FTPA31 PHFO 241500 AAA
TAFHNL
TAF AMD
PHNL 241501Z 2415/2518 06010KT P6SM FEW030
     FM242200 07013G19KT P6SM SCT025 SCT050
     FM250500 06008KT P6SM FEW030=



000
FTPA31 PHFO 241100
TAFHNL
TAF
PHNL 241134Z 2412/2518 06010KT P6SM FEW030
     FM242200 07013G19KT P6SM SCT025 SCT050
     FM250500 06008KT P6SM FEW030=



000
FTPA31 PHFO 241100
TAFHNL
TAF
PHNL 241134Z 2412/2518 06010KT P6SM FEW030
     FM242200 07013G19KT P6SM SCT025 SCT050
     FM250500 06008KT P6SM FEW030=



000
FTPA31 PHFO 240800 AAA
TAFHNL
TAF AMD
PHNL 240857Z 2409/2512 06005KT P6SM FEW030
     FM242200 07011G18KT P6SM SCT025 SCT050
     FM250500 06008KT P6SM FEW030=



000
FTPA31 PHFO 240800 AAA
TAFHNL
TAF AMD
PHNL 240857Z 2409/2512 06005KT P6SM FEW030
     FM242200 07011G18KT P6SM SCT025 SCT050
     FM250500 06008KT P6SM FEW030=



000
FTPA31 PHFO 240500
TAFHNL
TAF
PHNL 240536Z 2406/2512 06005KT P6SM FEW030
     FM242200 07011G18KT P6SM SCT025 SCT050
     FM250500 06008KT P6SM FEW030=



000
FTPA31 PHFO 240500
TAFHNL
TAF
PHNL 240536Z 2406/2512 06005KT P6SM FEW030
     FM242200 07011G18KT P6SM SCT025 SCT050
     FM250500 06008KT P6SM FEW030=



000
FTPA31 PHFO 240500
TAFHNL
TAF
PHNL 240536Z 2406/2512 06005KT P6SM FEW030
     FM242200 07011G18KT P6SM SCT025 SCT050
     FM250500 06008KT P6SM FEW030=



000
FTPA31 PHFO 240500 AAB
TAFHNL
TAF AMD
PHNL 240511Z 2405/2506 06005KT P6SM FEW030
     FM240900 03005KT P6SM FEW030
     FM242300 06010KT P6SM SCT025 SCT050=



000
FTPA31 PHFO 240500 AAB
TAFHNL
TAF AMD
PHNL 240511Z 2405/2506 06005KT P6SM FEW030
     FM240900 03005KT P6SM FEW030
     FM242300 06010KT P6SM SCT025 SCT050=



000
FTPA31 PHFO 240500 AAB
TAFHNL
TAF AMD
PHNL 240511Z 2405/2506 06005KT P6SM FEW030
     FM240900 03005KT P6SM FEW030
     FM242300 06010KT P6SM SCT025 SCT050=



000
FTPA31 PHFO 240500 AAB
TAFHNL
TAF AMD
PHNL 240511Z 2405/2506 06005KT P6SM FEW030
     FM240900 03005KT P6SM FEW030
     FM242300 06010KT P6SM SCT025 SCT050=



000
FTPA31 PHFO 240200 AAA
TAFHNL
TAF AMD
PHNL 240300Z 2403/2506 06010KT P6SM SCT030 SCT050
     FM240600 06005KT P6SM FEW030
     FM240900 03005KT P6SM FEW030
     FM242300 06010KT P6SM SCT025 SCT050=



000
FTPA31 PHFO 240200 AAA
TAFHNL
TAF AMD
PHNL 240300Z 2403/2506 06010KT P6SM SCT030 SCT050
     FM240600 06005KT P6SM FEW030
     FM240900 03005KT P6SM FEW030
     FM242300 06010KT P6SM SCT025 SCT050=



000
FTPA31 PHFO 240200 AAA
TAFHNL
TAF AMD
PHNL 240300Z 2403/2506 06010KT P6SM SCT030 SCT050
     FM240600 06005KT P6SM FEW030
     FM240900 03005KT P6SM FEW030
     FM242300 06010KT P6SM SCT025 SCT050=



000
FTPA31 PHFO 240200 AAA
TAFHNL
TAF AMD
PHNL 240300Z 2403/2506 06010KT P6SM SCT030 SCT050
     FM240600 06005KT P6SM FEW030
     FM240900 03005KT P6SM FEW030
     FM242300 06010KT P6SM SCT025 SCT050=



    US Dept of Commerce
    National Oceanic and Atmospheric Administration
    National Weather Service
    1325 East West Highway
    Silver Spring, MD 20910
    Page Author: NWS Internet Services Team
Disclaimer
Information Quality
Credits
Glossary
Privacy Policy
Freedom of Information Act (FOIA)
About Us
Career Opportunities